sensor_id;sensor_type;location;lat;lon;timestamp;P1;durP1;ratioP1;P2;durP2;ratioP2
48207;SDS011;33997;53.278;9.708;2022-09-02T00:00:33;3.00;;;0.80;;
48207;SDS011;33997;53.278;9.708;2022-09-02T00:02:58;0.60;;;0.60;;
48207;SDS011;33997;53.278;9.708;2022-09-02T00:05:24;1.88;;;0.77;;
48207;SDS011;33997;53.278;9.708;2022-09-02T00:07:49;1.23;;;0.65;;
48207;SDS011;33997;53.278;9.708;2022-09-02T00:10:15;2.42;;;0.75;;
48207;SDS011;33997;53.278;9.708;2022-09-02T00:12:40;1.75;;;0.80;;
48207;SDS011;33997;53.278;9.708;2022-09-02T00:15:06;3.42;;;0.70;;
48207;SDS011;33997;53.278;9.708;2022-09-02T00:17:32;2.22;;;1.00;;
48207;SDS011;33997;53.278;9.708;2022-09-02T00:19:58;2.17;;;1.02;;
48207;SDS011;33997;53.278;9.708;2022-09-02T00:22:23;1.27;;;0.80;;
48207;SDS011;33997;53.278;9.708;2022-09-02T00:24:49;2.67;;;0.80;;
48207;SDS011;33997;53.278;9.708;2022-09-02T00:27:15;1.10;;;0.90;;
48207;SDS011;33997;53.278;9.708;2022-09-02T00:29:40;1.65;;;1.15;;
48207;SDS011;33997;53.278;9.708;2022-09-02T00:32:06;0.77;;;0.60;;
48207;SDS011;33997;53.278;9.708;2022-09-02T00:34:31;2.35;;;1.00;;
48207;SDS011;33997;53.278;9.708;2022-09-02T00:36:57;1.85;;;0.88;;
48207;SDS011;33997;53.278;9.708;2022-09-02T00:39:22;3.10;;;0.80;;
48207;SDS011;33997;53.278;9.708;2022-09-02T00:41:48;4.60;;;0.80;;
48207;SDS011;33997;53.278;9.708;2022-09-02T00:44:15;1.73;;;0.90;;
48207;SDS011;33997;53.278;9.708;2022-09-02T00:46:42;3.63;;;0.82;;
48207;SDS011;33997;53.278;9.708;2022-09-02T00:51:42;1.13;;;0.82;;
48207;SDS011;33997;53.278;9.708;2022-09-02T00:54:09;0.70;;;0.70;;
48207;SDS011;33997;53.278;9.708;2022-09-02T00:56:37;1.40;;;0.90;;
48207;SDS011;33997;53.278;9.708;2022-09-02T00:59:06;1.80;;;0.80;;
48207;SDS011;33997;53.278;9.708;2022-09-02T01:01:32;1.38;;;0.77;;
48207;SDS011;33997;53.278;9.708;2022-09-02T01:03:58;1.83;;;0.80;;
48207;SDS011;33997;53.278;9.708;2022-09-02T01:06:24;4.15;;;0.90;;
48207;SDS011;33997;53.278;9.708;2022-09-02T01:08:56;1.50;;;0.80;;
48207;SDS011;33997;53.278;9.708;2022-09-02T01:11:27;0.70;;;0.70;;
48207;SDS011;33997;53.278;9.708;2022-09-02T01:14:01;1.85;;;0.90;;
48207;SDS011;33997;53.278;9.708;2022-09-02T01:16:30;1.20;;;0.82;;
48207;SDS011;33997;53.278;9.708;2022-09-02T01:19:05;4.30;;;0.90;;
48207;SDS011;33997;53.278;9.708;2022-09-02T01:21:43;1.65;;;0.90;;
48207;SDS011;33997;53.278;9.708;2022-09-02T01:24:11;2.22;;;1.00;;
48207;SDS011;33997;53.278;9.708;2022-09-02T01:26:37;1.73;;;0.80;;
48207;SDS011;33997;53.278;9.708;2022-09-02T01:29:03;2.42;;;0.90;;
48207;SDS011;33997;53.278;9.708;2022-09-02T01:31:29;1.55;;;0.93;;
48207;SDS011;33997;53.278;9.708;2022-09-02T01:33:54;1.85;;;1.00;;
48207;SDS011;33997;53.278;9.708;2022-09-02T01:36:20;0.82;;;0.80;;
48207;SDS011;33997;53.278;9.708;2022-09-02T01:38:46;1.63;;;0.70;;
48207;SDS011;33997;53.278;9.708;2022-09-02T01:41:11;1.55;;;1.00;;
48207;SDS011;33997;53.278;9.708;2022-09-02T01:43:37;1.25;;;0.80;;
48207;SDS011;33997;53.278;9.708;2022-09-02T01:46:03;1.33;;;0.95;;
48207;SDS011;33997;53.278;9.708;2022-09-02T01:48:28;2.15;;;1.10;;
48207;SDS011;33997;53.278;9.708;2022-09-02T01:50:55;3.47;;;0.98;;
48207;SDS011;33997;53.278;9.708;2022-09-02T01:53:23;0.90;;;0.75;;
48207;SDS011;33997;53.278;9.708;2022-09-02T01:55:49;2.80;;;1.10;;
48207;SDS011;33997;53.278;9.708;2022-09-02T01:58:14;1.35;;;0.98;;
48207;SDS011;33997;53.278;9.708;2022-09-02T02:00:40;1.38;;;0.80;;
48207;SDS011;33997;53.278;9.708;2022-09-02T02:03:06;4.00;;;1.05;;
48207;SDS011;33997;53.278;9.708;2022-09-02T02:05:31;4.15;;;1.20;;
48207;SDS011;33997;53.278;9.708;2022-09-02T02:07:57;1.10;;;0.85;;
48207;SDS011;33997;53.278;9.708;2022-09-02T02:10:24;1.23;;;0.95;;
48207;SDS011;33997;53.278;9.708;2022-09-02T02:12:50;2.08;;;1.02;;
48207;SDS011;33997;53.278;9.708;2022-09-02T02:15:16;2.05;;;1.00;;
48207;SDS011;33997;53.278;9.708;2022-09-02T02:17:43;2.67;;;1.00;;
48207;SDS011;33997;53.278;9.708;2022-09-02T02:20:09;6.18;;;1.02;;
48207;SDS011;33997;53.278;9.708;2022-09-02T02:22:39;2.00;;;1.20;;
48207;SDS011;33997;53.278;9.708;2022-09-02T02:25:05;1.58;;;0.85;;
48207;SDS011;33997;53.278;9.708;2022-09-02T02:27:31;2.15;;;1.10;;
48207;SDS011;33997;53.278;9.708;2022-09-02T02:29:57;1.52;;;1.20;;
48207;SDS011;33997;53.278;9.708;2022-09-02T02:32:23;2.55;;;1.17;;
48207;SDS011;33997;53.278;9.708;2022-09-02T02:34:49;1.40;;;1.10;;
48207;SDS011;33997;53.278;9.708;2022-09-02T02:37:15;4.68;;;1.00;;
48207;SDS011;33997;53.278;9.708;2022-09-02T02:39:41;4.00;;;1.10;;
48207;SDS011;33997;53.278;9.708;2022-09-02T02:42:07;1.10;;;1.00;;
48207;SDS011;33997;53.278;9.708;2022-09-02T02:44:37;6.30;;;1.23;;
48207;SDS011;33997;53.278;9.708;2022-09-02T02:47:04;1.73;;;1.20;;
48207;SDS011;33997;53.278;9.708;2022-09-02T02:49:30;1.80;;;1.08;;
48207;SDS011;33997;53.278;9.708;2022-09-02T02:52:00;2.30;;;1.10;;
48207;SDS011;33997;53.278;9.708;2022-09-02T02:54:25;3.25;;;1.40;;
48207;SDS011;33997;53.278;9.708;2022-09-02T02:56:51;2.22;;;1.10;;
48207;SDS011;33997;53.278;9.708;2022-09-02T02:59:16;2.08;;;1.35;;
48207;SDS011;33997;53.278;9.708;2022-09-02T03:01:42;1.70;;;1.20;;
48207;SDS011;33997;53.278;9.708;2022-09-02T03:04:07;3.88;;;1.33;;
48207;SDS011;33997;53.278;9.708;2022-09-02T03:06:32;2.88;;;1.05;;
48207;SDS011;33997;53.278;9.708;2022-09-02T03:08:59;4.55;;;1.40;;
48207;SDS011;33997;53.278;9.708;2022-09-02T03:11:25;1.85;;;1.30;;
48207;SDS011;33997;53.278;9.708;2022-09-02T03:13:52;1.77;;;1.30;;
48207;SDS011;33997;53.278;9.708;2022-09-02T03:16:18;1.67;;;1.30;;
48207;SDS011;33997;53.278;9.708;2022-09-02T03:18:44;3.33;;;1.35;;
48207;SDS011;33997;53.278;9.708;2022-09-02T03:21:11;3.25;;;1.40;;
48207;SDS011;33997;53.278;9.708;2022-09-02T03:23:39;2.03;;;1.20;;
48207;SDS011;33997;53.278;9.708;2022-09-02T03:26:13;2.03;;;1.20;;
48207;SDS011;33997;53.278;9.708;2022-09-02T03:28:40;2.08;;;1.30;;
48207;SDS011;33997;53.278;9.708;2022-09-02T03:31:06;1.92;;;1.20;;
48207;SDS011;33997;53.278;9.708;2022-09-02T03:33:36;1.88;;;1.48;;
48207;SDS011;33997;53.278;9.708;2022-09-02T03:36:02;2.13;;;1.58;;
48207;SDS011;33997;53.278;9.708;2022-09-02T03:38:28;3.30;;;1.40;;
48207;SDS011;33997;53.278;9.708;2022-09-02T03:40:53;1.95;;;1.25;;
48207;SDS011;33997;53.278;9.708;2022-09-02T03:43:19;1.98;;;1.67;;
48207;SDS011;33997;53.278;9.708;2022-09-02T03:45:44;4.65;;;1.77;;
48207;SDS011;33997;53.278;9.708;2022-09-02T03:48:11;2.05;;;1.40;;
48207;SDS011;33997;53.278;9.708;2022-09-02T03:50:38;2.85;;;1.38;;
48207;SDS011;33997;53.278;9.708;2022-09-02T03:53:05;1.88;;;1.20;;
48207;SDS011;33997;53.278;9.708;2022-09-02T03:55:31;1.77;;;1.45;;
48207;SDS011;33997;53.278;9.708;2022-09-02T03:57:57;2.20;;;1.58;;
48207;SDS011;33997;53.278;9.708;2022-09-02T04:00:24;3.75;;;1.77;;
48207;SDS011;33997;53.278;9.708;2022-09-02T04:02:53;4.57;;;1.73;;
48207;SDS011;33997;53.278;9.708;2022-09-02T04:05:19;2.22;;;1.50;;
48207;SDS011;33997;53.278;9.708;2022-09-02T04:07:46;3.85;;;1.55;;
48207;SDS011;33997;53.278;9.708;2022-09-02T04:10:12;2.42;;;1.38;;
48207;SDS011;33997;53.278;9.708;2022-09-02T04:12:38;2.53;;;1.83;;
48207;SDS011;33997;53.278;9.708;2022-09-02T04:15:04;2.88;;;1.75;;
48207;SDS011;33997;53.278;9.708;2022-09-02T04:17:34;3.33;;;1.90;;
48207;SDS011;33997;53.278;9.708;2022-09-02T04:20:00;2.50;;;1.70;;
48207;SDS011;33997;53.278;9.708;2022-09-02T04:22:26;2.20;;;1.60;;
48207;SDS011;33997;53.278;9.708;2022-09-02T04:24:52;2.58;;;1.60;;
48207;SDS011;33997;53.278;9.708;2022-09-02T04:27:17;2.95;;;1.60;;
48207;SDS011;33997;53.278;9.708;2022-09-02T04:29:43;2.45;;;1.77;;
48207;SDS011;33997;53.278;9.708;2022-09-02T04:32:08;5.57;;;1.88;;
48207;SDS011;33997;53.278;9.708;2022-09-02T04:34:34;7.53;;;1.80;;
48207;SDS011;33997;53.278;9.708;2022-09-02T04:36:59;3.17;;;1.75;;
48207;SDS011;33997;53.278;9.708;2022-09-02T04:39:25;3.42;;;1.92;;
48207;SDS011;33997;53.278;9.708;2022-09-02T04:41:50;2.50;;;1.83;;
48207;SDS011;33997;53.278;9.708;2022-09-02T04:44:17;3.13;;;1.60;;
48207;SDS011;33997;53.278;9.708;2022-09-02T04:46:43;2.65;;;1.90;;
48207;SDS011;33997;53.278;9.708;2022-09-02T04:49:08;2.55;;;1.77;;
48207;SDS011;33997;53.278;9.708;2022-09-02T04:51:35;5.65;;;2.05;;
48207;SDS011;33997;53.278;9.708;2022-09-02T04:54:01;4.13;;;1.95;;
48207;SDS011;33997;53.278;9.708;2022-09-02T04:56:27;3.63;;;1.90;;
48207;SDS011;33997;53.278;9.708;2022-09-02T04:58:54;4.03;;;2.03;;
48207;SDS011;33997;53.278;9.708;2022-09-02T05:01:21;3.40;;;2.00;;
48207;SDS011;33997;53.278;9.708;2022-09-02T05:03:51;3.63;;;2.13;;
48207;SDS011;33997;53.278;9.708;2022-09-02T05:06:19;4.03;;;2.13;;
48207;SDS011;33997;53.278;9.708;2022-09-02T05:08:46;2.92;;;2.03;;
48207;SDS011;33997;53.278;9.708;2022-09-02T05:11:14;3.83;;;1.77;;
48207;SDS011;33997;53.278;9.708;2022-09-02T05:13:45;4.20;;;1.90;;
48207;SDS011;33997;53.278;9.708;2022-09-02T05:16:19;4.25;;;2.50;;
48207;SDS011;33997;53.278;9.708;2022-09-02T05:18:47;7.18;;;2.20;;
48207;SDS011;33997;53.278;9.708;2022-09-02T05:21:13;3.97;;;1.42;;
48207;SDS011;33997;53.278;9.708;2022-09-02T05:23:39;4.43;;;1.92;;
48207;SDS011;33997;53.278;9.708;2022-09-02T05:26:05;3.40;;;1.83;;
48207;SDS011;33997;53.278;9.708;2022-09-02T05:28:31;3.38;;;2.00;;
48207;SDS011;33997;53.278;9.708;2022-09-02T05:31:02;4.07;;;1.52;;
48207;SDS011;33997;53.278;9.708;2022-09-02T05:33:29;2.72;;;1.48;;
48207;SDS011;33997;53.278;9.708;2022-09-02T05:35:55;3.90;;;1.80;;
48207;SDS011;33997;53.278;9.708;2022-09-02T05:38:21;4.00;;;1.95;;
48207;SDS011;33997;53.278;9.708;2022-09-02T05:40:46;3.97;;;1.60;;
48207;SDS011;33997;53.278;9.708;2022-09-02T05:43:12;3.92;;;1.80;;
48207;SDS011;33997;53.278;9.708;2022-09-02T05:45:37;3.63;;;1.65;;
48207;SDS011;33997;53.278;9.708;2022-09-02T05:48:03;4.22;;;1.75;;
48207;SDS011;33997;53.278;9.708;2022-09-02T05:50:49;2.38;;;1.55;;
48207;SDS011;33997;53.278;9.708;2022-09-02T05:53:14;3.45;;;1.60;;
48207;SDS011;33997;53.278;9.708;2022-09-02T05:55:43;2.20;;;1.58;;
48207;SDS011;33997;53.278;9.708;2022-09-02T05:58:08;3.22;;;1.77;;
48207;SDS011;33997;53.278;9.708;2022-09-02T06:00:33;2.17;;;1.50;;
48207;SDS011;33997;53.278;9.708;2022-09-02T06:02:59;3.95;;;1.67;;
48207;SDS011;33997;53.278;9.708;2022-09-02T06:05:25;2.28;;;1.50;;
48207;SDS011;33997;53.278;9.708;2022-09-02T06:07:51;2.25;;;1.50;;
48207;SDS011;33997;53.278;9.708;2022-09-02T06:10:16;2.72;;;1.60;;
48207;SDS011;33997;53.278;9.708;2022-09-02T06:12:42;2.58;;;1.45;;
48207;SDS011;33997;53.278;9.708;2022-09-02T06:15:09;1.73;;;1.20;;
48207;SDS011;33997;53.278;9.708;2022-09-02T06:17:34;3.40;;;1.70;;
48207;SDS011;33997;53.278;9.708;2022-09-02T06:20:00;2.03;;;1.30;;
48207;SDS011;33997;53.278;9.708;2022-09-02T06:22:25;3.70;;;1.88;;
48207;SDS011;33997;53.278;9.708;2022-09-02T06:24:51;2.35;;;1.60;;
48207;SDS011;33997;53.278;9.708;2022-09-02T06:27:16;3.63;;;1.75;;
48207;SDS011;33997;53.278;9.708;2022-09-02T06:29:42;3.00;;;1.55;;
48207;SDS011;33997;53.278;9.708;2022-09-02T06:32:07;2.72;;;1.52;;
48207;SDS011;33997;53.278;9.708;2022-09-02T06:34:33;1.52;;;1.25;;
48207;SDS011;33997;53.278;9.708;2022-09-02T06:36:59;5.78;;;1.65;;
48207;SDS011;33997;53.278;9.708;2022-09-02T06:39:24;2.40;;;1.50;;
48207;SDS011;33997;53.278;9.708;2022-09-02T06:41:50;2.20;;;1.13;;
48207;SDS011;33997;53.278;9.708;2022-09-02T06:44:17;3.17;;;1.08;;
48207;SDS011;33997;53.278;9.708;2022-09-02T06:46:46;1.58;;;1.02;;
48207;SDS011;33997;53.278;9.708;2022-09-02T06:51:43;3.17;;;0.90;;
48207;SDS011;33997;53.278;9.708;2022-09-02T06:54:11;1.23;;;0.90;;
48207;SDS011;33997;53.278;9.708;2022-09-02T06:56:40;1.40;;;0.88;;
48207;SDS011;33997;53.278;9.708;2022-09-02T06:59:06;2.83;;;0.85;;
48207;SDS011;33997;53.278;9.708;2022-09-02T07:01:32;3.03;;;1.10;;
48207;SDS011;33997;53.278;9.708;2022-09-02T07:03:59;1.52;;;0.90;;
48207;SDS011;33997;53.278;9.708;2022-09-02T07:06:45;1.83;;;0.90;;
48207;SDS011;33997;53.278;9.708;2022-09-02T07:09:14;2.15;;;1.30;;
48207;SDS011;33997;53.278;9.708;2022-09-02T07:11:41;1.38;;;0.88;;
48207;SDS011;33997;53.278;9.708;2022-09-02T07:14:11;2.78;;;0.95;;
48207;SDS011;33997;53.278;9.708;2022-09-02T07:16:41;1.35;;;0.80;;
48207;SDS011;33997;53.278;9.708;2022-09-02T07:19:08;1.30;;;0.90;;
48207;SDS011;33997;53.278;9.708;2022-09-02T07:21:35;1.98;;;0.80;;
48207;SDS011;33997;53.278;9.708;2022-09-02T07:24:01;1.80;;;0.93;;
48207;SDS011;33997;53.278;9.708;2022-09-02T07:26:27;3.13;;;0.90;;
48207;SDS011;33997;53.278;9.708;2022-09-02T07:28:53;1.73;;;0.90;;
48207;SDS011;33997;53.278;9.708;2022-09-02T07:31:19;1.35;;;0.80;;
48207;SDS011;33997;53.278;9.708;2022-09-02T07:33:47;0.82;;;0.60;;
48207;SDS011;33997;53.278;9.708;2022-09-02T07:36:12;3.42;;;0.90;;
48207;SDS011;33997;53.278;9.708;2022-09-02T07:38:39;2.47;;;0.75;;
48207;SDS011;33997;53.278;9.708;2022-09-02T07:41:06;1.75;;;0.80;;
48207;SDS011;33997;53.278;9.708;2022-09-02T07:43:33;1.13;;;0.70;;
48207;SDS011;33997;53.278;9.708;2022-09-02T07:46:01;2.03;;;0.77;;
48207;SDS011;33997;53.278;9.708;2022-09-02T07:48:27;1.35;;;0.68;;
48207;SDS011;33997;53.278;9.708;2022-09-02T07:50:54;1.45;;;1.05;;
48207;SDS011;33997;53.278;9.708;2022-09-02T07:53:20;2.13;;;0.77;;
48207;SDS011;33997;53.278;9.708;2022-09-02T07:55:46;1.30;;;0.88;;
48207;SDS011;33997;53.278;9.708;2022-09-02T07:58:12;2.95;;;0.70;;
48207;SDS011;33997;53.278;9.708;2022-09-02T08:00:39;1.02;;;0.55;;
48207;SDS011;33997;53.278;9.708;2022-09-02T08:03:06;1.17;;;0.75;;
48207;SDS011;33997;53.278;9.708;2022-09-02T08:05:33;0.88;;;0.80;;
48207;SDS011;33997;53.278;9.708;2022-09-02T08:07:59;0.70;;;0.70;;
48207;SDS011;33997;53.278;9.708;2022-09-02T08:10:25;8.43;;;0.80;;
48207;SDS011;33997;53.278;9.708;2022-09-02T08:12:52;0.73;;;0.60;;
48207;SDS011;33997;53.278;9.708;2022-09-02T08:15:18;1.30;;;0.70;;
48207;SDS011;33997;53.278;9.708;2022-09-02T08:17:47;1.40;;;0.70;;
48207;SDS011;33997;53.278;9.708;2022-09-02T08:20:13;0.98;;;0.50;;
48207;SDS011;33997;53.278;9.708;2022-09-02T08:22:41;2.55;;;0.75;;
48207;SDS011;33997;53.278;9.708;2022-09-02T08:25:07;1.67;;;0.60;;
48207;SDS011;33997;53.278;9.708;2022-09-02T08:27:33;3.05;;;0.60;;
48207;SDS011;33997;53.278;9.708;2022-09-02T08:29:59;0.40;;;0.40;;
48207;SDS011;33997;53.278;9.708;2022-09-02T08:32:25;1.33;;;0.60;;
48207;SDS011;33997;53.278;9.708;2022-09-02T08:34:52;2.70;;;0.65;;
48207;SDS011;33997;53.278;9.708;2022-09-02T08:37:17;0.50;;;0.50;;
48207;SDS011;33997;53.278;9.708;2022-09-02T08:39:44;1.67;;;0.70;;
48207;SDS011;33997;53.278;9.708;2022-09-02T08:44:50;1.98;;;0.80;;
48207;SDS011;33997;53.278;9.708;2022-09-02T08:47:21;3.05;;;0.60;;
48207;SDS011;33997;53.278;9.708;2022-09-02T08:49:50;1.63;;;0.77;;
48207;SDS011;33997;53.278;9.708;2022-09-02T08:52:30;3.25;;;0.82;;
48207;SDS011;33997;53.278;9.708;2022-09-02T08:55:22;2.05;;;0.55;;
48207;SDS011;33997;53.278;9.708;2022-09-02T08:57:53;1.00;;;0.63;;
48207;SDS011;33997;53.278;9.708;2022-09-02T09:00:21;1.85;;;0.80;;
48207;SDS011;33997;53.278;9.708;2022-09-02T09:02:51;1.92;;;0.55;;
48207;SDS011;33997;53.278;9.708;2022-09-02T09:05:43;1.15;;;0.60;;
48207;SDS011;33997;53.278;9.708;2022-09-02T09:08:32;1.10;;;0.60;;
48207;SDS011;33997;53.278;9.708;2022-09-02T09:11:21;1.58;;;1.15;;
48207;SDS011;33997;53.278;9.708;2022-09-02T09:14:00;1.35;;;0.63;;
48207;SDS011;33997;53.278;9.708;2022-09-02T09:16:40;0.68;;;0.43;;
48207;SDS011;33997;53.278;9.708;2022-09-02T09:19:33;1.38;;;0.50;;
48207;SDS011;33997;53.278;9.708;2022-09-02T09:22:02;1.38;;;1.02;;
48207;SDS011;33997;53.278;9.708;2022-09-02T09:24:31;2.58;;;0.68;;
48207;SDS011;33997;53.278;9.708;2022-09-02T09:27:02;2.22;;;0.52;;
48207;SDS011;33997;53.278;9.708;2022-09-02T09:29:32;4.60;;;0.70;;
48207;SDS011;33997;53.278;9.708;2022-09-02T09:31:58;0.57;;;0.50;;
48207;SDS011;33997;53.278;9.708;2022-09-02T09:34:45;1.90;;;0.55;;
48207;SDS011;33997;53.278;9.708;2022-09-02T09:37:40;1.08;;;0.40;;
48207;SDS011;33997;53.278;9.708;2022-09-02T09:42:45;5.20;;;0.82;;
48207;SDS011;33997;53.278;9.708;2022-09-02T09:45:19;1.60;;;0.80;;
48207;SDS011;33997;53.278;9.708;2022-09-02T09:50:39;2.37;;;0.43;;
48207;SDS011;33997;53.278;9.708;2022-09-02T10:01:20;1.05;;;0.55;;
48207;SDS011;33997;53.278;9.708;2022-09-02T10:04:06;1.98;;;0.60;;
48207;SDS011;33997;53.278;9.708;2022-09-02T10:06:41;3.40;;;0.73;;
48207;SDS011;33997;53.278;9.708;2022-09-02T10:11:58;1.25;;;0.50;;
48207;SDS011;33997;53.278;9.708;2022-09-02T10:14:45;1.60;;;0.50;;
48207;SDS011;33997;53.278;9.708;2022-09-02T10:17:18;1.70;;;0.52;;
48207;SDS011;33997;53.278;9.708;2022-09-02T10:31:03;2.17;;;0.57;;
48207;SDS011;33997;53.278;9.708;2022-09-02T10:36:35;1.73;;;0.63;;
48207;SDS011;33997;53.278;9.708;2022-09-02T10:39:35;1.60;;;0.65;;
48207;SDS011;33997;53.278;9.708;2022-09-02T10:42:19;1.55;;;0.70;;
48207;SDS011;33997;53.278;9.708;2022-09-02T10:45:07;2.83;;;0.70;;
48207;SDS011;33997;53.278;9.708;2022-09-02T10:47:47;1.13;;;0.50;;
48207;SDS011;33997;53.278;9.708;2022-09-02T10:50:46;3.00;;;0.65;;
48207;SDS011;33997;53.278;9.708;2022-09-02T11:01:24;0.70;;;0.50;;
48207;SDS011;33997;53.278;9.708;2022-09-02T11:03:56;0.77;;;0.50;;
48207;SDS011;33997;53.278;9.708;2022-09-02T11:06:38;1.92;;;0.60;;
48207;SDS011;33997;53.278;9.708;2022-09-02T11:09:11;2.03;;;0.55;;
48207;SDS011;33997;53.278;9.708;2022-09-02T11:11:47;1.13;;;0.35;;
48207;SDS011;33997;53.278;9.708;2022-09-02T11:14:30;2.22;;;0.70;;
48207;SDS011;33997;53.278;9.708;2022-09-02T11:17:08;1.23;;;0.55;;
48207;SDS011;33997;53.278;9.708;2022-09-02T11:19:41;1.60;;;0.53;;
48207;SDS011;33997;53.278;9.708;2022-09-02T11:25:30;3.20;;;0.77;;
48207;SDS011;33997;53.278;9.708;2022-09-02T11:36:15;1.73;;;0.60;;
48207;SDS011;33997;53.278;9.708;2022-09-02T11:44:34;3.05;;;0.70;;
48207;SDS011;33997;53.278;9.708;2022-09-02T11:53:04;1.20;;;0.70;;
48207;SDS011;33997;53.278;9.708;2022-09-02T11:55:55;1.40;;;0.60;;
48207;SDS011;33997;53.278;9.708;2022-09-02T11:58:37;1.10;;;0.50;;
48207;SDS011;33997;53.278;9.708;2022-09-02T12:03:40;0.73;;;0.55;;
48207;SDS011;33997;53.278;9.708;2022-09-02T12:11:07;1.65;;;0.70;;
48207;SDS011;33997;53.278;9.708;2022-09-02T12:13:36;2.78;;;0.50;;
48207;SDS011;33997;53.278;9.708;2022-09-02T12:18:43;0.70;;;0.45;;
48207;SDS011;33997;53.278;9.708;2022-09-02T12:26:23;0.75;;;0.52;;
48207;SDS011;33997;53.278;9.708;2022-09-02T12:31:49;1.52;;;0.70;;
48207;SDS011;33997;53.278;9.708;2022-09-02T12:36:46;1.42;;;0.60;;
48207;SDS011;33997;53.278;9.708;2022-09-02T12:41:55;1.73;;;1.10;;
48207;SDS011;33997;53.278;9.708;2022-09-02T12:47:57;2.28;;;0.93;;
48207;SDS011;33997;53.278;9.708;2022-09-02T12:50:30;3.63;;;0.80;;
48207;SDS011;33997;53.278;9.708;2022-09-02T12:53:28;1.38;;;0.80;;
48207;SDS011;33997;53.278;9.708;2022-09-02T12:56:20;1.80;;;1.02;;
48207;SDS011;33997;53.278;9.708;2022-09-02T12:58:48;1.00;;;0.73;;
48207;SDS011;33997;53.278;9.708;2022-09-02T13:04:15;1.02;;;0.52;;
48207;SDS011;33997;53.278;9.708;2022-09-02T13:15:21;2.03;;;0.70;;
48207;SDS011;33997;53.278;9.708;2022-09-02T13:26:23;2.03;;;0.57;;
48207;SDS011;33997;53.278;9.708;2022-09-02T13:32:01;3.13;;;1.30;;
48207;SDS011;33997;53.278;9.708;2022-09-02T13:37:25;1.30;;;0.50;;
48207;SDS011;33997;53.278;9.708;2022-09-02T13:39:53;3.13;;;0.60;;
48207;SDS011;33997;53.278;9.708;2022-09-02T13:42:23;1.45;;;0.60;;
48207;SDS011;33997;53.278;9.708;2022-09-02T13:45:07;0.90;;;0.40;;
48207;SDS011;33997;53.278;9.708;2022-09-02T13:47:36;2.17;;;0.45;;
48207;SDS011;33997;53.278;9.708;2022-09-02T13:50:05;0.55;;;0.47;;
48207;SDS011;33997;53.278;9.708;2022-09-02T13:52:31;2.58;;;0.77;;
48207;SDS011;33997;53.278;9.708;2022-09-02T13:55:00;1.63;;;0.70;;
48207;SDS011;33997;53.278;9.708;2022-09-02T13:57:26;1.95;;;0.60;;
48207;SDS011;33997;53.278;9.708;2022-09-02T13:59:53;2.22;;;1.10;;
48207;SDS011;33997;53.278;9.708;2022-09-02T14:02:27;1.67;;;0.63;;
48207;SDS011;33997;53.278;9.708;2022-09-02T14:04:59;2.35;;;0.70;;
48207;SDS011;33997;53.278;9.708;2022-09-02T14:07:46;1.50;;;0.50;;
48207;SDS011;33997;53.278;9.708;2022-09-02T14:10:14;2.53;;;0.70;;
48207;SDS011;33997;53.278;9.708;2022-09-02T14:12:43;3.63;;;0.50;;
48207;SDS011;33997;53.278;9.708;2022-09-02T14:15:11;1.27;;;0.55;;
48207;SDS011;33997;53.278;9.708;2022-09-02T14:17:38;2.05;;;0.70;;
48207;SDS011;33997;53.278;9.708;2022-09-02T14:22:38;3.10;;;0.70;;
48207;SDS011;33997;53.278;9.708;2022-09-02T14:25:12;1.60;;;0.68;;
48207;SDS011;33997;53.278;9.708;2022-09-02T14:27:46;1.08;;;0.70;;
48207;SDS011;33997;53.278;9.708;2022-09-02T14:30:22;2.35;;;0.40;;
48207;SDS011;33997;53.278;9.708;2022-09-02T14:43:45;5.50;;;0.82;;
48207;SDS011;33997;53.278;9.708;2022-09-02T14:46:14;2.28;;;0.77;;
48207;SDS011;33997;53.278;9.708;2022-09-02T14:48:44;1.73;;;0.75;;
48207;SDS011;33997;53.278;9.708;2022-09-02T14:51:29;1.63;;;0.70;;
48207;SDS011;33997;53.278;9.708;2022-09-02T14:54:03;1.83;;;0.60;;
48207;SDS011;33997;53.278;9.708;2022-09-02T14:59:08;1.30;;;0.45;;
48207;SDS011;33997;53.278;9.708;2022-09-02T15:01:38;1.92;;;0.70;;
48207;SDS011;33997;53.278;9.708;2022-09-02T15:04:06;1.55;;;0.60;;
48207;SDS011;33997;53.278;9.708;2022-09-02T15:06:32;1.10;;;0.60;;
48207;SDS011;33997;53.278;9.708;2022-09-02T15:08:57;5.32;;;0.88;;
48207;SDS011;33997;53.278;9.708;2022-09-02T15:11:22;4.50;;;0.80;;
48207;SDS011;33997;53.278;9.708;2022-09-02T15:13:48;1.75;;;0.50;;
48207;SDS011;33997;53.278;9.708;2022-09-02T15:16:13;1.15;;;0.50;;
48207;SDS011;33997;53.278;9.708;2022-09-02T15:18:39;1.65;;;0.60;;
48207;SDS011;33997;53.278;9.708;2022-09-02T15:21:05;2.35;;;0.68;;
48207;SDS011;33997;53.278;9.708;2022-09-02T15:23:30;2.78;;;0.70;;
48207;SDS011;33997;53.278;9.708;2022-09-02T15:25:56;2.42;;;0.68;;
48207;SDS011;33997;53.278;9.708;2022-09-02T15:28:22;2.72;;;0.52;;
48207;SDS011;33997;53.278;9.708;2022-09-02T15:30:47;2.35;;;0.60;;
48207;SDS011;33997;53.278;9.708;2022-09-02T15:33:20;1.30;;;0.52;;
48207;SDS011;33997;53.278;9.708;2022-09-02T15:35:45;1.55;;;0.70;;
48207;SDS011;33997;53.278;9.708;2022-09-02T15:38:11;2.85;;;0.60;;
48207;SDS011;33997;53.278;9.708;2022-09-02T15:40:36;1.42;;;0.70;;
48207;SDS011;33997;53.278;9.708;2022-09-02T15:43:02;1.45;;;0.70;;
48207;SDS011;33997;53.278;9.708;2022-09-02T15:45:27;3.25;;;0.65;;
48207;SDS011;33997;53.278;9.708;2022-09-02T15:47:55;1.25;;;0.70;;
48207;SDS011;33997;53.278;9.708;2022-09-02T15:50:22;2.13;;;0.90;;
48207;SDS011;33997;53.278;9.708;2022-09-02T15:52:48;1.75;;;0.70;;
48207;SDS011;33997;53.278;9.708;2022-09-02T15:55:13;0.82;;;0.60;;
48207;SDS011;33997;53.278;9.708;2022-09-02T15:57:39;2.38;;;0.70;;
48207;SDS011;33997;53.278;9.708;2022-09-02T16:00:05;1.10;;;0.52;;
48207;SDS011;33997;53.278;9.708;2022-09-02T16:02:31;6.85;;;0.75;;
48207;SDS011;33997;53.278;9.708;2022-09-02T16:04:57;1.05;;;0.57;;
48207;SDS011;33997;53.278;9.708;2022-09-02T16:07:22;2.67;;;0.60;;
48207;SDS011;33997;53.278;9.708;2022-09-02T16:09:48;4.18;;;0.70;;
48207;SDS011;33997;53.278;9.708;2022-09-02T16:12:13;1.60;;;0.70;;
48207;SDS011;33997;53.278;9.708;2022-09-02T16:14:39;1.45;;;0.80;;
48207;SDS011;33997;53.278;9.708;2022-09-02T16:17:04;3.05;;;0.70;;
48207;SDS011;33997;53.278;9.708;2022-09-02T16:19:32;1.08;;;0.57;;
48207;SDS011;33997;53.278;9.708;2022-09-02T16:21:57;2.17;;;0.80;;
48207;SDS011;33997;53.278;9.708;2022-09-02T16:24:23;3.08;;;0.82;;
48207;SDS011;33997;53.278;9.708;2022-09-02T16:26:49;5.43;;;0.90;;
48207;SDS011;33997;53.278;9.708;2022-09-02T16:29:15;2.80;;;0.55;;
48207;SDS011;33997;53.278;9.708;2022-09-02T16:31:43;2.97;;;0.60;;
48207;SDS011;33997;53.278;9.708;2022-09-02T16:34:12;1.50;;;0.80;;
48207;SDS011;33997;53.278;9.708;2022-09-02T16:36:40;2.53;;;0.77;;
48207;SDS011;33997;53.278;9.708;2022-09-02T16:39:08;3.08;;;0.68;;
48207;SDS011;33997;53.278;9.708;2022-09-02T16:41:40;2.10;;;0.88;;
48207;SDS011;33997;53.278;9.708;2022-09-02T16:44:08;1.73;;;0.57;;
48207;SDS011;33997;53.278;9.708;2022-09-02T16:46:36;1.23;;;0.70;;
48207;SDS011;33997;53.278;9.708;2022-09-02T16:49:06;3.10;;;0.80;;
48207;SDS011;33997;53.278;9.708;2022-09-02T16:51:32;1.67;;;0.70;;
48207;SDS011;33997;53.278;9.708;2022-09-02T16:53:59;1.23;;;0.60;;
48207;SDS011;33997;53.278;9.708;2022-09-02T16:56:26;2.17;;;0.70;;
48207;SDS011;33997;53.278;9.708;2022-09-02T16:58:55;2.92;;;0.70;;
48207;SDS011;33997;53.278;9.708;2022-09-02T17:01:23;1.58;;;0.75;;
48207;SDS011;33997;53.278;9.708;2022-09-02T17:03:49;3.17;;;0.80;;
48207;SDS011;33997;53.278;9.708;2022-09-02T17:06:15;1.08;;;0.60;;
48207;SDS011;33997;53.278;9.708;2022-09-02T17:08:41;2.33;;;0.70;;
48207;SDS011;33997;53.278;9.708;2022-09-02T17:13:50;0.65;;;0.60;;
48207;SDS011;33997;53.278;9.708;2022-09-02T17:16:20;2.55;;;0.80;;
48207;SDS011;33997;53.278;9.708;2022-09-02T17:18:46;3.05;;;0.75;;